createdAt,value
2023-08-20T00:02:20.163Z,7.30
2023-08-20T00:04:48.502Z,8.23
2023-08-20T00:07:19.251Z,15.30
2023-08-20T00:09:46.698Z,19.13
2023-08-20T00:12:14.162Z,16.88
2023-08-20T00:14:53.934Z,17.63
2023-08-20T00:17:25.443Z,17.63
2023-08-20T00:19:54.189Z,13.85
2023-08-20T00:22:23.238Z,12.38
2023-08-20T00:24:51.008Z,12.18
2023-08-20T00:27:18.560Z,12.57
2023-08-20T00:29:46.071Z,10.43
2023-08-20T00:32:13.970Z,9.90
2023-08-20T00:34:42.823Z,9.57
2023-08-20T00:37:10.335Z,9.60
2023-08-20T00:39:38.426Z,12.23
2023-08-20T00:42:06.257Z,8.95
2023-08-20T00:44:33.748Z,10.23
2023-08-20T00:47:02.265Z,9.32
2023-08-20T00:49:29.762Z,9.45
2023-08-20T00:51:58.613Z,10.43
2023-08-20T00:54:26.679Z,9.18
2023-08-20T00:56:54.304Z,9.95
2023-08-20T00:59:22.187Z,8.77
2023-08-20T01:01:49.789Z,9.05
2023-08-20T01:04:17.320Z,12.68
2023-08-20T01:06:49.217Z,7.40
2023-08-20T01:09:23.080Z,7.60
2023-08-20T01:11:54.153Z,7.78
2023-08-20T01:14:22.744Z,7.88
2023-08-20T01:16:50.427Z,8.45
2023-08-20T01:19:19.446Z,7.30
2023-08-20T01:21:51.804Z,7.70
2023-08-20T01:24:26.912Z,7.78
2023-08-20T01:27:09.032Z,7.50
2023-08-20T01:29:38.108Z,9.57
2023-08-20T01:32:06.407Z,7.65
2023-08-20T01:34:33.921Z,8.57
2023-08-20T01:37:02.114Z,7.30
2023-08-20T01:39:29.564Z,8.05
2023-08-20T01:41:57.058Z,8.50
2023-08-20T01:44:27.759Z,8.25
2023-08-20T01:46:56.586Z,8.35
2023-08-20T01:49:24.091Z,8.40
2023-08-20T01:51:51.624Z,8.18
2023-08-20T01:54:19.177Z,11.38
2023-08-20T01:56:47.398Z,9.38
2023-08-20T01:59:15.236Z,8.30
2023-08-20T02:01:42.772Z,8.00
2023-08-20T02:04:12.116Z,7.75
2023-08-20T02:06:39.767Z,7.78
2023-08-20T02:09:07.519Z,7.88
2023-08-20T02:11:36.781Z,8.63
2023-08-20T02:14:04.609Z,8.00
2023-08-20T02:16:32.099Z,8.57
2023-08-20T02:19:03.656Z,8.50
2023-08-20T02:21:32.525Z,9.63
2023-08-20T02:24:00.088Z,7.68
2023-08-20T02:26:28.911Z,9.00
2023-08-20T02:28:56.361Z,8.60
2023-08-20T02:31:23.824Z,8.35
2023-08-20T02:33:51.372Z,10.13
2023-08-20T02:36:18.872Z,7.70
2023-08-20T02:38:48.100Z,8.23
2023-08-20T02:41:16.488Z,8.27
2023-08-20T02:43:43.978Z,8.10
2023-08-20T02:46:11.447Z,7.80
2023-08-20T02:48:39.114Z,8.15
2023-08-20T02:51:06.619Z,7.90
2023-08-20T02:53:34.155Z,7.93
2023-08-20T02:56:04.468Z,8.88
2023-08-20T02:58:31.976Z,7.40
2023-08-20T03:00:59.810Z,7.70
2023-08-20T03:03:27.301Z,7.47
2023-08-20T03:05:55.203Z,7.72
2023-08-20T03:08:22.803Z,7.63
2023-08-20T03:10:50.262Z,8.25
2023-08-20T03:13:20.287Z,8.98
2023-08-20T03:15:47.736Z,8.95
2023-08-20T03:18:15.274Z,9.00
2023-08-20T03:20:42.778Z,9.32
2023-08-20T03:23:10.255Z,8.97
2023-08-20T03:25:37.764Z,8.15
2023-08-20T03:28:05.535Z,8.80
2023-08-20T03:30:35.777Z,8.95
2023-08-20T03:33:03.293Z,8.30
2023-08-20T03:35:32.427Z,7.70
2023-08-20T03:37:59.936Z,8.40
2023-08-20T03:40:27.401Z,7.82
2023-08-20T03:42:54.870Z,8.07
2023-08-20T03:45:22.379Z,8.63
2023-08-20T03:47:51.369Z,8.10
2023-08-20T03:50:19.188Z,9.73
2023-08-20T03:52:46.750Z,10.20
2023-08-20T03:55:14.251Z,9.05
2023-08-20T03:57:41.830Z,8.82
2023-08-20T04:00:10.898Z,9.57
2023-08-20T04:02:46.612Z,10.30
2023-08-20T04:05:15.565Z,11.98
2023-08-20T04:07:43.132Z,8.80
2023-08-20T04:10:10.866Z,9.20
2023-08-20T04:12:38.473Z,8.45
2023-08-20T04:15:06.627Z,9.57
2023-08-20T04:17:34.717Z,10.35
2023-08-20T04:20:02.502Z,9.25
2023-08-20T04:22:32.404Z,8.90
2023-08-20T04:25:00.423Z,9.57
2023-08-20T04:27:29.029Z,8.90
2023-08-20T04:29:56.848Z,8.82
2023-08-20T04:32:24.432Z,9.83
2023-08-20T04:34:53.154Z,8.57
2023-08-20T04:37:22.185Z,10.10
2023-08-20T04:39:51.203Z,11.50
2023-08-20T04:42:18.793Z,9.20
2023-08-20T04:44:46.527Z,8.70
2023-08-20T04:47:14.313Z,9.10
2023-08-20T04:49:41.778Z,9.43
2023-08-20T04:52:09.312Z,9.63
2023-08-20T04:54:37.166Z,8.87
2023-08-20T04:57:06.071Z,9.88
2023-08-20T04:59:33.651Z,10.57
2023-08-20T05:02:29.802Z,10.10
2023-08-20T05:05:02.235Z,10.87
2023-08-20T05:07:29.787Z,9.30
2023-08-20T05:09:57.376Z,9.10
2023-08-20T05:12:26.660Z,9.43
2023-08-20T05:14:54.168Z,10.37
2023-08-20T05:17:21.784Z,10.03
2023-08-20T05:19:49.369Z,9.47
2023-08-20T05:22:16.901Z,10.23
2023-08-20T05:24:44.933Z,9.60
2023-08-20T05:27:17.199Z,9.83
2023-08-20T05:29:48.154Z,9.30
2023-08-20T05:32:17.381Z,10.20
2023-08-20T05:34:45.368Z,9.47
2023-08-20T05:37:13.380Z,10.37
2023-08-20T05:39:42.451Z,11.90
2023-08-20T05:42:10.220Z,16.97
2023-08-20T05:44:39.240Z,14.50
2023-08-20T05:47:11.816Z,14.13
2023-08-20T05:49:39.299Z,11.63
2023-08-20T05:52:07.535Z,10.17
2023-08-20T05:54:35.886Z,9.88
2023-08-20T05:57:03.997Z,8.73
2023-08-20T05:59:31.511Z,10.15
2023-08-20T06:01:59.023Z,8.77
2023-08-20T06:04:27.872Z,10.88
2023-08-20T06:06:55.330Z,9.90
2023-08-20T06:09:22.805Z,9.85
2023-08-20T06:11:50.539Z,9.35
2023-08-20T06:14:17.957Z,9.13
2023-08-20T06:16:45.399Z,8.45
2023-08-20T06:19:12.880Z,13.38
2023-08-20T06:21:41.651Z,9.45
2023-08-20T06:24:09.892Z,9.13
2023-08-20T06:26:37.394Z,9.52
2023-08-20T06:29:05.065Z,9.02
2023-08-20T06:31:32.560Z,9.55
2023-08-20T06:34:00.130Z,10.38
2023-08-20T06:36:28.811Z,8.98
2023-08-20T06:38:58.127Z,9.15
2023-08-20T06:41:25.588Z,9.10
2023-08-20T06:43:53.173Z,9.93
2023-08-20T06:46:20.664Z,10.63
2023-08-20T06:48:48.155Z,9.75
2023-08-20T06:51:16.240Z,8.52
2023-08-20T06:53:43.712Z,9.60
2023-08-20T06:56:12.996Z,8.70
2023-08-20T06:58:40.832Z,9.20
2023-08-20T07:01:13.638Z,9.00
2023-08-20T07:03:41.741Z,9.48
2023-08-20T07:06:10.128Z,9.13
2023-08-20T07:08:37.640Z,8.40
2023-08-20T07:11:05.072Z,8.25
2023-08-20T07:13:33.917Z,8.65
2023-08-20T07:16:02.293Z,8.02
2023-08-20T07:18:29.851Z,8.18
2023-08-20T07:20:57.996Z,8.55
2023-08-20T07:23:25.657Z,8.02
2023-08-20T07:25:53.465Z,7.90
2023-08-20T07:28:41.702Z,8.35
2023-08-20T07:31:10.578Z,9.88
2023-08-20T07:33:38.050Z,8.98
2023-08-20T07:36:06.003Z,8.95
2023-08-20T07:38:33.476Z,9.88
2023-08-20T07:41:00.957Z,9.38
2023-08-20T07:43:28.841Z,22.67
2023-08-20T07:45:56.329Z,9.95
2023-08-20T07:48:25.197Z,10.45
2023-08-20T07:50:52.667Z,9.57
2023-08-20T07:53:20.134Z,10.13
2023-08-20T07:55:47.571Z,10.40
2023-08-20T07:58:15.010Z,9.57
2023-08-20T08:00:42.525Z,11.30
2023-08-20T08:03:10.842Z,10.95
2023-08-20T08:05:39.700Z,11.52
2023-08-20T08:08:07.400Z,10.25
2023-08-20T08:10:34.861Z,9.80
2023-08-20T08:13:02.334Z,10.25
2023-08-20T08:15:32.346Z,10.10
2023-08-20T08:18:00.361Z,10.73
2023-08-20T08:20:28.893Z,10.70
2023-08-20T08:22:57.744Z,11.68
2023-08-20T08:25:25.351Z,10.35
2023-08-20T08:27:59.964Z,10.57
2023-08-20T08:30:28.972Z,10.30
2023-08-20T08:32:56.503Z,10.88
2023-08-20T08:35:24.008Z,8.38
2023-08-20T08:37:51.693Z,9.48
2023-08-20T08:40:20.647Z,9.80
2023-08-20T08:42:49.988Z,9.10
2023-08-20T08:45:18.337Z,9.07
2023-08-20T08:47:46.034Z,9.35
2023-08-20T08:50:13.530Z,8.35
2023-08-20T08:52:41.788Z,9.18
2023-08-20T08:55:09.840Z,8.25
2023-08-20T08:57:38.815Z,7.82
2023-08-20T09:00:07.338Z,7.30
2023-08-20T09:02:34.835Z,7.60
2023-08-20T09:05:02.648Z,8.48
2023-08-20T09:07:31.740Z,7.40
2023-08-20T09:10:01.726Z,8.25
2023-08-20T09:12:30.420Z,7.97
2023-08-20T09:15:01.950Z,7.90
2023-08-20T09:17:30.555Z,8.40
2023-08-20T09:19:58.973Z,6.70
2023-08-20T09:22:26.479Z,7.90
2023-08-20T09:24:55.192Z,8.52
2023-08-20T09:27:22.713Z,8.77
2023-08-20T09:29:51.157Z,7.10
2023-08-20T09:32:21.752Z,8.00
2023-08-20T09:34:49.756Z,7.90
2023-08-20T09:37:18.008Z,7.22
2023-08-20T09:39:45.776Z,8.00
2023-08-20T09:42:13.773Z,7.07
2023-08-20T09:44:42.462Z,6.20
2023-08-20T09:47:11.149Z,7.88
2023-08-20T09:49:40.533Z,7.47
2023-08-20T09:52:09.433Z,7.65
2023-08-20T09:54:42.618Z,9.27
2023-08-20T09:57:14.497Z,7.13
2023-08-20T09:59:43.326Z,7.28
2023-08-20T10:02:14.919Z,7.22
2023-08-20T10:04:44.573Z,7.85
2023-08-20T10:07:12.400Z,7.00
2023-08-20T10:09:42.242Z,6.40
2023-08-20T10:12:11.624Z,7.03
2023-08-20T10:14:39.054Z,8.82
2023-08-20T10:17:08.217Z,7.95
2023-08-20T10:19:35.682Z,9.32
2023-08-20T10:22:06.320Z,7.80
2023-08-20T10:24:41.896Z,7.20
2023-08-20T10:27:10.663Z,7.35
2023-08-20T10:29:42.927Z,7.53
2023-08-20T10:32:11.045Z,7.10
2023-08-20T10:34:39.601Z,8.15
2023-08-20T10:37:14.770Z,6.45
2023-08-20T10:39:43.413Z,7.20
2023-08-20T10:42:12.123Z,6.82
2023-08-20T10:44:58.516Z,10.85
2023-08-20T10:47:26.928Z,7.38
2023-08-20T10:49:54.753Z,8.60
2023-08-20T10:52:24.195Z,8.20
2023-08-20T10:54:52.276Z,7.38
2023-08-20T10:57:22.932Z,7.50
2023-08-20T10:59:58.260Z,6.90
2023-08-20T11:02:26.450Z,7.00
2023-08-20T11:04:54.433Z,6.63
2023-08-20T11:07:24.397Z,6.03
2023-08-20T11:09:52.359Z,6.10
2023-08-20T11:12:21.830Z,6.60
2023-08-20T11:14:49.332Z,7.43
2023-08-20T11:17:17.067Z,6.38
2023-08-20T11:19:47.534Z,6.25
2023-08-20T11:22:19.853Z,6.43
2023-08-20T11:24:48.745Z,7.60
2023-08-20T11:27:16.894Z,6.28
2023-08-20T11:29:44.376Z,6.10
2023-08-20T11:32:12.038Z,7.90
2023-08-20T11:34:40.120Z,6.00
2023-08-20T11:37:08.028Z,5.63
2023-08-20T11:39:35.496Z,5.88
2023-08-20T11:42:06.206Z,7.20
2023-08-20T11:44:44.520Z,6.10
2023-08-20T11:47:15.307Z,7.05
2023-08-20T11:49:42.732Z,6.43
2023-08-20T11:52:10.564Z,9.23
2023-08-20T11:54:38.096Z,5.40
2023-08-20T11:57:07.457Z,5.38
2023-08-20T11:59:35.176Z,5.28
2023-08-20T12:02:04.015Z,5.13
2023-08-20T12:04:32.008Z,8.18
2023-08-20T12:07:06.637Z,5.25
2023-08-20T12:09:35.410Z,6.05
2023-08-20T12:12:03.802Z,5.22
2023-08-20T12:14:32.663Z,7.57
2023-08-20T12:17:00.182Z,5.57
2023-08-20T12:19:31.302Z,5.38
2023-08-20T12:21:58.850Z,5.40
2023-08-20T12:24:26.987Z,7.82
2023-08-20T12:26:54.765Z,5.57
2023-08-20T12:29:22.234Z,5.32
2023-08-20T12:31:51.058Z,5.20
2023-08-20T12:34:18.520Z,5.20
2023-08-20T12:36:46.069Z,5.63
2023-08-20T12:39:14.506Z,5.55
2023-08-20T12:41:42.379Z,8.43
2023-08-20T12:44:09.944Z,6.10
2023-08-20T12:46:37.502Z,7.25
2023-08-20T12:49:06.504Z,4.97
2023-08-20T12:51:33.958Z,6.03
2023-08-20T12:54:02.666Z,5.60
2023-08-20T12:56:30.146Z,5.78
2023-08-20T12:58:57.572Z,7.03
2023-08-20T13:01:25.097Z,6.43
2023-08-20T13:03:52.976Z,6.15
2023-08-20T13:06:22.395Z,6.18
2023-08-20T13:08:50.189Z,6.60
2023-08-20T13:11:19.098Z,5.80
2023-08-20T13:13:47.098Z,8.30
2023-08-20T13:16:14.871Z,5.78
2023-08-20T13:18:42.692Z,7.50
2023-08-20T13:21:10.340Z,6.28
2023-08-20T13:23:39.161Z,6.47
2023-08-20T13:26:07.930Z,6.85
2023-08-20T13:28:36.056Z,6.47
2023-08-20T13:31:05.371Z,6.35
2023-08-20T13:33:32.855Z,6.20
2023-08-20T13:36:00.339Z,5.75
2023-08-20T13:38:27.896Z,6.07
2023-08-20T13:40:58.115Z,5.45
2023-08-20T13:43:25.649Z,5.90
2023-08-20T13:45:53.513Z,5.63
2023-08-20T13:48:20.984Z,5.60
2023-08-20T13:50:48.574Z,5.55
2023-08-20T13:53:16.096Z,7.18
2023-08-20T13:55:43.585Z,5.03
2023-08-20T13:58:12.438Z,6.03
2023-08-20T14:00:40.130Z,5.40
2023-08-20T14:03:07.672Z,5.70
2023-08-20T14:05:35.160Z,4.97
2023-08-20T14:08:02.946Z,4.53
2023-08-20T14:10:30.641Z,4.32
2023-08-20T14:12:58.119Z,4.38
2023-08-20T14:15:27.007Z,6.00
2023-08-20T14:17:54.543Z,4.13
2023-08-20T14:20:22.045Z,4.03
2023-08-20T14:22:49.549Z,3.90
2023-08-20T14:25:17.152Z,4.05
2023-08-20T14:27:44.748Z,3.65
2023-08-20T14:30:12.519Z,4.15
2023-08-20T14:32:43.285Z,4.25
2023-08-20T14:35:11.240Z,4.50
2023-08-20T14:37:38.727Z,4.55
2023-08-20T14:40:07.696Z,4.40
2023-08-20T14:42:35.514Z,4.55
2023-08-20T14:45:04.935Z,4.47
2023-08-20T14:47:33.225Z,3.78
2023-08-20T14:50:02.051Z,4.75
2023-08-20T14:52:29.529Z,4.30
2023-08-20T14:54:56.999Z,4.50
2023-08-20T14:57:26.211Z,3.00
2023-08-20T14:59:57.194Z,2.80
2023-08-20T15:02:24.933Z,3.03
2023-08-20T15:04:52.496Z,3.75
2023-08-20T15:07:21.275Z,2.80
2023-08-20T15:09:48.747Z,2.90
2023-08-20T15:12:16.198Z,3.20
2023-08-20T15:14:43.626Z,3.80
2023-08-20T15:17:11.385Z,2.83
2023-08-20T15:19:38.877Z,3.10
2023-08-20T15:22:06.639Z,3.70
2023-08-20T15:24:35.469Z,3.15
2023-08-20T15:27:04.458Z,3.47
2023-08-20T15:29:31.935Z,3.90
2023-08-20T15:31:59.373Z,3.95
2023-08-20T15:34:26.834Z,3.63
2023-08-20T15:36:54.330Z,5.03
2023-08-20T15:39:22.767Z,5.43
2023-08-20T15:41:51.532Z,4.43
2023-08-20T15:44:18.976Z,4.50
2023-08-20T15:46:46.526Z,4.40
2023-08-20T15:49:14.485Z,4.25
2023-08-20T15:51:41.958Z,4.38
2023-08-20T15:54:09.454Z,4.32
2023-08-20T15:56:38.399Z,4.65
2023-08-20T15:59:07.528Z,4.72
2023-08-20T16:01:35.334Z,4.88
2023-08-20T16:04:03.461Z,4.90
2023-08-20T16:06:30.966Z,5.18
2023-08-20T16:08:58.998Z,4.82
2023-08-20T16:11:26.425Z,4.97
2023-08-20T16:13:54.076Z,4.88
2023-08-20T16:16:22.917Z,5.07
2023-08-20T16:18:51.044Z,5.03
2023-08-20T16:21:18.467Z,4.97
2023-08-20T16:23:45.944Z,5.07
2023-08-20T16:26:13.439Z,4.78
2023-08-20T16:28:42.430Z,5.35
2023-08-20T16:31:10.520Z,6.00
2023-08-20T16:33:39.371Z,4.65
2023-08-20T16:36:07.216Z,4.40
2023-08-20T16:38:34.680Z,5.05
2023-08-20T16:41:03.621Z,4.53
2023-08-20T16:43:32.583Z,4.55
2023-08-20T16:46:00.917Z,4.40
2023-08-20T16:48:31.433Z,4.65
2023-08-20T16:51:04.145Z,5.28
2023-08-20T16:53:32.195Z,4.28
2023-08-20T16:55:59.673Z,4.65
2023-08-20T16:58:27.235Z,3.90
2023-08-20T17:00:56.940Z,4.43
2023-08-20T17:03:26.054Z,3.95
2023-08-20T17:06:02.615Z,4.28
2023-08-20T17:08:30.338Z,4.22
2023-08-20T17:11:04.338Z,4.10
2023-08-20T17:13:31.969Z,3.72
2023-08-20T17:15:59.820Z,3.92
2023-08-20T17:18:27.922Z,3.85
2023-08-20T17:20:55.399Z,4.00
2023-08-20T17:23:24.289Z,4.30
2023-08-20T17:25:55.047Z,4.38
2023-08-20T17:28:22.637Z,4.40
2023-08-20T17:30:51.333Z,4.10
2023-08-20T17:33:19.004Z,4.10
2023-08-20T17:35:46.909Z,4.95
2023-08-20T17:38:15.906Z,4.20
2023-08-20T17:40:44.735Z,4.30
2023-08-20T17:43:12.463Z,4.97
2023-08-20T17:45:39.965Z,4.00
2023-08-20T17:48:07.962Z,4.22
2023-08-20T17:50:36.340Z,4.82
2023-08-20T17:53:05.650Z,4.72
2023-08-20T17:55:33.413Z,4.40
2023-08-20T17:58:02.366Z,4.45
2023-08-20T18:00:30.252Z,5.00
2023-08-20T18:02:58.562Z,4.47
2023-08-20T18:05:26.118Z,4.57
2023-08-20T18:07:55.514Z,4.32
2023-08-20T18:10:23.105Z,4.47
2023-08-20T18:12:50.558Z,5.13
2023-08-20T18:15:19.515Z,4.40
2023-08-20T18:17:47.016Z,5.25
2023-08-20T18:20:15.761Z,5.07
2023-08-20T18:22:43.466Z,6.72
2023-08-20T18:25:11.456Z,4.82
2023-08-20T18:27:39.006Z,4.43
2023-08-20T18:30:07.086Z,5.18
2023-08-20T18:32:36.317Z,4.47
2023-08-20T18:35:04.990Z,5.38
2023-08-20T18:37:32.504Z,4.82
2023-08-20T18:40:00.367Z,4.45
2023-08-20T18:42:29.524Z,4.63
2023-08-20T18:44:59.214Z,4.35
2023-08-20T18:47:26.758Z,5.03
2023-08-20T18:49:55.609Z,4.78
2023-08-20T18:52:23.065Z,6.10
2023-08-20T18:54:50.494Z,5.75
2023-08-20T18:57:18.037Z,4.38
2023-08-20T18:59:45.986Z,4.55
2023-08-20T19:02:13.475Z,4.07
2023-08-20T19:04:41.300Z,4.38
2023-08-20T19:07:10.426Z,5.15
2023-08-20T19:09:38.824Z,5.00
2023-08-20T19:12:06.456Z,5.00
2023-08-20T19:14:33.943Z,5.93
2023-08-20T19:17:01.546Z,4.78
2023-08-20T19:19:29.067Z,4.38
2023-08-20T19:21:56.775Z,7.28
2023-08-20T19:24:25.619Z,5.53
2023-08-20T19:26:53.129Z,4.78
2023-08-20T19:29:21.938Z,4.22
2023-08-20T19:31:51.577Z,4.65
2023-08-20T19:34:19.224Z,4.60
2023-08-20T19:36:46.693Z,4.63
2023-08-20T19:39:14.143Z,4.35
2023-08-20T19:41:42.960Z,4.50
2023-08-20T19:44:10.467Z,5.30
2023-08-20T19:46:37.969Z,4.72
2023-08-20T19:49:05.606Z,4.22
2023-08-20T19:51:33.137Z,4.38
2023-08-20T19:54:00.667Z,4.75
2023-08-20T19:56:28.126Z,5.13
2023-08-20T19:58:57.229Z,4.47
2023-08-20T20:01:25.882Z,4.43
2023-08-20T20:03:54.063Z,4.20
2023-08-20T20:06:21.521Z,4.85
2023-08-20T20:08:48.971Z,4.80
2023-08-20T20:11:16.401Z,4.90
2023-08-20T20:13:43.855Z,4.82
2023-08-20T20:16:12.682Z,5.13
2023-08-20T20:18:40.299Z,5.95
2023-08-20T20:21:07.811Z,5.18
2023-08-20T20:23:35.257Z,6.57
2023-08-20T20:26:05.553Z,4.65
2023-08-20T20:28:33.030Z,4.60
2023-08-20T20:31:00.570Z,5.03
2023-08-20T20:33:29.865Z,5.22
2023-08-20T20:35:57.345Z,7.70
2023-08-20T20:38:24.777Z,4.90
2023-08-20T20:40:52.270Z,4.88
2023-08-20T20:43:22.777Z,4.72
2023-08-20T20:45:51.979Z,6.53
2023-08-20T20:48:19.512Z,4.90
2023-08-20T20:50:48.362Z,5.30
2023-08-20T20:53:15.854Z,4.60
2023-08-20T20:55:43.356Z,5.25
2023-08-20T20:58:11.186Z,5.20
2023-08-20T21:00:38.737Z,6.03
2023-08-20T21:03:06.452Z,5.65
2023-08-20T21:05:33.976Z,5.35
2023-08-20T21:08:03.298Z,5.90
2023-08-20T21:10:30.866Z,6.03
2023-08-20T21:12:58.351Z,6.00
2023-08-20T21:15:25.828Z,8.38
2023-08-20T21:17:53.320Z,5.63
2023-08-20T21:20:20.914Z,6.88
2023-08-20T21:22:48.447Z,6.28
2023-08-20T21:25:17.416Z,5.00
2023-08-20T21:27:44.907Z,6.43
2023-08-20T21:30:15.761Z,8.50
2023-08-20T21:32:43.568Z,6.80
2023-08-20T21:35:11.056Z,5.55
2023-08-20T21:37:38.520Z,6.25
2023-08-20T21:40:06.416Z,6.45
2023-08-20T21:42:35.498Z,5.50
2023-08-20T21:45:03.290Z,6.30
2023-08-20T21:47:32.271Z,5.97
2023-08-20T21:50:00.015Z,6.25
2023-08-20T21:52:28.665Z,6.72
2023-08-20T21:54:56.271Z,7.85
2023-08-20T21:57:24.109Z,6.07
2023-08-20T21:59:53.769Z,6.18
2023-08-20T22:02:22.026Z,6.10
2023-08-20T22:04:49.557Z,6.68
2023-08-20T22:07:17.067Z,5.60
2023-08-20T22:09:45.220Z,6.05
2023-08-20T22:12:12.930Z,6.18
2023-08-20T22:14:41.144Z,5.75
2023-08-20T22:17:10.067Z,6.68
2023-08-20T22:19:37.652Z,6.32
2023-08-20T22:22:05.196Z,6.90
2023-08-20T22:24:32.648Z,5.82
2023-08-20T22:27:00.142Z,6.25
2023-08-20T22:29:27.840Z,6.88
2023-08-20T22:31:55.312Z,5.30
2023-08-20T22:34:24.353Z,6.82
2023-08-20T22:36:51.864Z,6.20
2023-08-20T22:39:19.329Z,6.00
2023-08-20T22:41:46.811Z,5.93
2023-08-20T22:44:14.259Z,6.70
2023-08-20T22:46:41.741Z,7.18
2023-08-20T22:49:09.214Z,6.85
2023-08-20T22:51:38.073Z,5.65
2023-08-20T22:54:05.547Z,6.15
2023-08-20T22:56:32.993Z,6.55
2023-08-20T22:59:00.431Z,6.80
2023-08-20T23:01:27.971Z,6.88
2023-08-20T23:03:55.454Z,7.38
2023-08-20T23:06:22.949Z,8.23
2023-08-20T23:08:51.738Z,7.25
2023-08-20T23:11:19.270Z,7.88
2023-08-20T23:13:46.702Z,8.07
2023-08-20T23:16:14.298Z,7.30
2023-08-20T23:18:41.803Z,7.55
2023-08-20T23:21:09.278Z,7.97
2023-08-20T23:23:36.796Z,9.50
2023-08-20T23:26:05.642Z,7.85
2023-08-20T23:28:33.117Z,7.82
2023-08-20T23:31:01.789Z,9.05
2023-08-20T23:33:29.274Z,8.45
2023-08-20T23:35:56.736Z,7.07
2023-08-20T23:38:25.576Z,6.57
2023-08-20T23:40:56.193Z,7.85
2023-08-20T23:43:26.496Z,6.40
2023-08-20T23:45:53.969Z,6.55
2023-08-20T23:48:21.453Z,6.57
2023-08-20T23:50:48.941Z,6.30
2023-08-20T23:53:16.414Z,6.22
2023-08-20T23:55:44.454Z,5.85
2023-08-20T23:58:11.923Z,6.80
